Terminal Aerodrome Forecast
Issued by NWS Boston, MA

Home | Current Version | Previous Version | Text Only | Print | Product List | Glossary On
Versions: 1 2 3 4 5 6 7 8 9 10 11 12 13 14 15 16 17 18 19 20 21 22
000
FTUS41 KBOX 312320
TAFBDL
TAF
KBDL 312320Z 0100/0206 30007KT P6SM FEW250
     FM010600 01004KT P6SM SKC
     FM011700 07004KT P6SM SCT060
     FM012200 13007KT P6SM SCT040
     FM020300 11006KT P6SM SCT250=

USA.gov is the U.S. government's official web portal to all federal, state and local government web resources and services.